createdAt,value
2017-06-14T00:00:48.092Z,55.40
2017-06-14T00:03:16.172Z,55.30
2017-06-14T00:05:45.014Z,55.60
2017-06-14T00:08:13.107Z,55.10
2017-06-14T00:10:41.179Z,55.20
2017-06-14T00:13:09.279Z,55.20
2017-06-14T00:15:37.343Z,56.50
2017-06-14T00:18:05.433Z,55.60
2017-06-14T00:20:34.266Z,56.60
2017-06-14T00:23:02.339Z,55.90
2017-06-14T00:25:30.422Z,57.10
2017-06-14T00:27:58.495Z,56.40
2017-06-14T00:30:26.574Z,56.90
2017-06-14T00:32:54.652Z,56.60
2017-06-14T00:35:22.740Z,56.70
2017-06-14T00:37:50.815Z,56.60
2017-06-14T00:40:18.899Z,56.60
2017-06-14T00:42:47.743Z,56.90
2017-06-14T00:45:15.826Z,56.20
2017-06-14T00:47:43.903Z,56.20
2017-06-14T00:50:11.975Z,56.20
2017-06-14T00:52:40.063Z,57.30
2017-06-14T00:55:08.134Z,57.10
2017-06-14T00:57:36.220Z,57.10
2017-06-14T01:00:04.324Z,57.20
2017-06-14T01:02:32.380Z,58.90
2017-06-14T01:05:00.445Z,58.80
2017-06-14T01:07:28.516Z,58.40
2017-06-14T01:09:57.452Z,58.10
2017-06-14T01:12:25.526Z,58.00
2017-06-14T01:14:53.593Z,58.50
2017-06-14T01:17:21.677Z,58.60
2017-06-14T01:19:49.749Z,58.10
2017-06-14T01:22:17.811Z,58.30
2017-06-14T01:24:45.887Z,58.80
2017-06-14T01:27:13.959Z,58.50
2017-06-14T01:29:42.041Z,58.50
2017-06-14T01:32:10.328Z,58.50
2017-06-14T01:34:38.401Z,58.70
2017-06-14T01:37:06.470Z,58.20
2017-06-14T01:39:34.589Z,58.70
2017-06-14T01:42:02.701Z,58.50
2017-06-14T01:44:30.766Z,58.20
2017-06-14T01:46:58.845Z,58.70
2017-06-14T01:49:26.912Z,58.50
2017-06-14T01:51:54.985Z,59.00
2017-06-14T01:54:23.057Z,58.60
2017-06-14T01:56:51.130Z,59.00
2017-06-14T01:59:19.204Z,58.80
2017-06-14T02:01:47.273Z,59.20
2017-06-14T02:04:15.346Z,59.40
2017-06-14T02:06:43.418Z,59.40
2017-06-14T02:09:11.499Z,59.30
2017-06-14T02:11:39.565Z,59.90
2017-06-14T02:14:07.637Z,60.00
2017-06-14T02:16:35.709Z,60.30
2017-06-14T02:19:03.785Z,60.20
2017-06-14T02:21:31.853Z,60.50
2017-06-14T02:23:59.943Z,59.80
2017-06-14T02:26:28.002Z,60.30
2017-06-14T02:28:56.074Z,60.10
2017-06-14T02:31:24.140Z,60.30
2017-06-14T02:33:52.217Z,60.30
2017-06-14T02:36:20.289Z,60.40
2017-06-14T02:38:48.358Z,61.00
2017-06-14T02:41:16.446Z,60.00
2017-06-14T02:43:44.503Z,60.10
2017-06-14T02:46:12.578Z,60.30
2017-06-14T02:48:40.648Z,60.00
2017-06-14T02:51:08.758Z,59.90
2017-06-14T02:53:36.820Z,60.30
2017-06-14T02:56:04.901Z,60.90
2017-06-14T02:58:32.969Z,61.40
2017-06-14T03:01:01.031Z,60.70
2017-06-14T03:03:29.122Z,62.20
2017-06-14T03:05:57.253Z,61.70
2017-06-14T03:08:25.322Z,61.70
2017-06-14T03:10:53.372Z,61.70
2017-06-14T03:13:21.444Z,61.90
2017-06-14T03:15:49.504Z,61.90
2017-06-14T03:18:17.577Z,62.40
2017-06-14T03:21:05.927Z,62.40
2017-06-14T03:23:33.993Z,62.30
2017-06-14T03:26:02.062Z,61.90
2017-06-14T03:28:30.113Z,62.20
2017-06-14T03:30:58.188Z,61.70
2017-06-14T03:33:26.253Z,61.70
2017-06-14T03:35:54.333Z,61.70
2017-06-14T03:38:22.391Z,61.70
2017-06-14T03:40:50.505Z,61.70
2017-06-14T03:43:19.337Z,62.40
2017-06-14T03:45:47.521Z,62.40
2017-06-14T03:48:15.593Z,62.30
2017-06-14T03:50:43.664Z,62.00
2017-06-14T03:53:11.735Z,62.10
2017-06-14T03:55:39.797Z,62.30
2017-06-14T03:58:07.871Z,61.80
2017-06-14T04:00:35.946Z,62.20
2017-06-14T04:03:04.029Z,62.70
2017-06-14T04:05:32.086Z,62.50
2017-06-14T04:08:00.201Z,62.20
2017-06-14T04:10:28.305Z,63.80
2017-06-14T04:12:56.369Z,64.40
2017-06-14T04:15:24.442Z,64.60
2017-06-14T04:17:53.277Z,65.10
2017-06-14T04:20:21.354Z,65.00
2017-06-14T04:22:49.413Z,64.20
2017-06-14T04:25:17.504Z,64.70
2017-06-14T04:27:45.575Z,64.30
2017-06-14T04:30:13.645Z,64.70
2017-06-14T04:32:41.727Z,64.10
2017-06-14T04:35:09.797Z,64.90
2017-06-14T04:37:37.869Z,65.60
2017-06-14T04:40:05.940Z,64.60
2017-06-14T04:42:34.040Z,64.40
2017-06-14T04:45:02.097Z,65.60
2017-06-14T04:47:30.185Z,65.30
2017-06-14T04:49:58.252Z,65.20
2017-06-14T04:52:26.315Z,64.80
2017-06-14T04:54:54.385Z,64.90
2017-06-14T04:57:22.452Z,64.50
2017-06-14T04:59:50.536Z,63.40
2017-06-14T05:02:18.601Z,62.20
2017-06-14T05:04:46.678Z,62.00
2017-06-14T05:07:14.750Z,62.00
2017-06-14T05:09:42.840Z,60.90
2017-06-14T05:12:10.900Z,60.50
2017-06-14T05:14:38.969Z,60.10
2017-06-14T05:17:07.041Z,59.50
2017-06-14T05:19:35.110Z,59.10
2017-06-14T05:22:03.187Z,58.10
2017-06-14T05:24:31.258Z,59.10
2017-06-14T05:26:59.326Z,58.50
2017-06-14T05:29:27.392Z,58.10
2017-06-14T05:31:55.476Z,59.10
2017-06-14T05:34:23.536Z,59.10
2017-06-14T05:36:51.600Z,59.20
2017-06-14T05:39:19.676Z,58.60
2017-06-14T05:41:47.741Z,58.70
2017-06-14T05:44:15.812Z,57.90
2017-06-14T05:46:43.900Z,56.50
2017-06-14T05:49:11.981Z,57.80
2017-06-14T05:51:40.049Z,57.80
2017-06-14T05:54:08.107Z,56.80
2017-06-14T05:56:36.177Z,57.00
2017-06-14T05:59:04.233Z,57.00
2017-06-14T06:01:32.323Z,57.30
2017-06-14T06:04:00.396Z,57.70
2017-06-14T06:06:28.483Z,56.90
2017-06-14T06:08:56.555Z,55.80
2017-06-14T06:11:24.651Z,56.10
2017-06-14T06:13:53.499Z,55.50
2017-06-14T06:16:21.576Z,54.70
2017-06-14T06:18:49.663Z,54.30
2017-06-14T06:21:17.730Z,53.70
2017-06-14T06:23:45.822Z,52.90
2017-06-14T06:26:13.895Z,52.80
2017-06-14T06:28:41.975Z,52.20
2017-06-14T06:31:10.047Z,51.40
2017-06-14T06:33:38.131Z,51.20
2017-06-14T06:36:06.203Z,50.60
2017-06-14T06:38:35.055Z,50.10
2017-06-14T06:41:03.131Z,49.40
2017-06-14T06:43:31.211Z,49.60
2017-06-14T06:45:59.291Z,49.60
2017-06-14T06:48:27.367Z,48.70
2017-06-14T06:50:55.451Z,48.40
2017-06-14T06:53:24.287Z,48.10
2017-06-14T06:55:52.371Z,48.10
2017-06-14T06:58:20.447Z,47.60
2017-06-14T07:00:48.532Z,46.90
2017-06-14T07:03:16.609Z,47.50
2017-06-14T07:05:44.678Z,47.00
2017-06-14T07:08:12.764Z,46.30
2017-06-14T07:10:40.835Z,45.90
2017-06-14T07:13:08.918Z,45.90
2017-06-14T07:15:36.987Z,46.20
2017-06-14T07:18:05.067Z,46.30
2017-06-14T07:20:33.172Z,46.60
2017-06-14T07:23:01.264Z,46.10
2017-06-14T07:25:29.338Z,46.90
2017-06-14T07:27:57.426Z,46.60
2017-06-14T07:30:25.513Z,47.00
2017-06-14T07:32:53.587Z,47.00
2017-06-14T07:35:21.685Z,46.80
2017-06-14T07:37:49.738Z,46.70
2017-06-14T07:40:17.814Z,46.70
2017-06-14T07:42:45.877Z,46.40
2017-06-14T07:45:13.975Z,46.40
2017-06-14T07:47:42.040Z,46.90
2017-06-14T07:50:10.879Z,46.60
2017-06-14T07:52:38.948Z,45.80
2017-06-14T07:55:07.019Z,45.50
2017-06-14T07:57:35.104Z,45.60
2017-06-14T08:00:03.171Z,45.70
2017-06-14T08:02:31.255Z,45.70
2017-06-14T08:04:59.326Z,45.90
2017-06-14T08:07:27.419Z,45.30
2017-06-14T08:09:55.502Z,44.90
2017-06-14T08:12:23.563Z,45.10
2017-06-14T08:14:51.639Z,45.00
2017-06-14T08:17:19.707Z,44.30
2017-06-14T08:19:47.792Z,43.50
2017-06-14T08:22:15.855Z,43.30
2017-06-14T08:24:43.935Z,42.70
2017-06-14T08:27:12.001Z,42.80
2017-06-14T08:29:40.095Z,43.40
2017-06-14T08:32:08.162Z,42.70
2017-06-14T08:34:36.996Z,43.90
2017-06-14T08:37:05.067Z,43.20
2017-06-14T08:39:33.143Z,43.20
2017-06-14T08:42:01.223Z,43.00
2017-06-14T08:44:29.291Z,42.30
2017-06-14T08:46:57.358Z,42.20
2017-06-14T08:49:25.455Z,42.20
2017-06-14T08:51:53.531Z,42.20
2017-06-14T08:54:21.605Z,43.00
2017-06-14T08:56:49.672Z,42.40
2017-06-14T08:59:17.746Z,42.50
2017-06-14T09:01:45.811Z,42.50
2017-06-14T09:04:13.884Z,42.50
2017-06-14T09:06:41.971Z,41.80
2017-06-14T09:09:10.042Z,40.80
2017-06-14T09:11:38.119Z,41.50
2017-06-14T09:14:06.880Z,41.10
2017-06-14T09:16:34.963Z,41.40
2017-06-14T09:19:03.036Z,41.10
2017-06-14T09:21:31.112Z,41.30
2017-06-14T09:23:59.189Z,41.20
2017-06-14T09:26:27.250Z,41.80
2017-06-14T09:28:55.332Z,41.10
2017-06-14T09:31:23.395Z,40.70
2017-06-14T09:33:51.472Z,39.90
2017-06-14T09:36:19.544Z,39.50
2017-06-14T09:38:47.615Z,39.10
2017-06-14T09:41:15.686Z,38.90
2017-06-14T09:43:43.755Z,38.70
2017-06-14T09:46:11.836Z,37.80
2017-06-14T09:48:39.907Z,37.10
2017-06-14T09:51:07.991Z,38.40
2017-06-14T09:53:36.064Z,38.80
2017-06-14T09:56:04.136Z,39.70
2017-06-14T09:58:32.207Z,39.70
2017-06-14T10:01:00.279Z,39.60
2017-06-14T10:03:28.362Z,39.70
2017-06-14T10:05:56.427Z,39.80
2017-06-14T10:08:24.515Z,39.60
2017-06-14T10:10:52.587Z,39.40
2017-06-14T10:13:21.427Z,40.00
2017-06-14T10:15:49.499Z,39.30
2017-06-14T10:18:17.575Z,38.50
2017-06-14T10:20:45.638Z,39.30
2017-06-14T10:23:13.710Z,39.40
2017-06-14T10:25:41.786Z,39.50
2017-06-14T10:28:09.860Z,39.60
2017-06-14T10:30:37.930Z,40.30
2017-06-14T10:33:06.002Z,40.40
2017-06-14T10:35:34.091Z,40.50
2017-06-14T10:38:02.160Z,40.30
2017-06-14T10:40:30.247Z,40.30
2017-06-14T10:42:58.319Z,40.00
2017-06-14T10:45:26.382Z,40.10
2017-06-14T10:47:54.467Z,39.60
2017-06-14T10:50:22.526Z,39.40
2017-06-14T10:52:50.599Z,39.50
2017-06-14T10:55:18.676Z,39.60
2017-06-14T10:57:46.754Z,38.80
2017-06-14T11:00:14.818Z,39.60
2017-06-14T11:02:42.896Z,39.40
2017-06-14T11:05:10.962Z,40.00
2017-06-14T11:07:39.035Z,39.70
2017-06-14T11:10:07.123Z,40.10
2017-06-14T11:12:35.187Z,39.90
2017-06-14T11:15:03.267Z,39.70
2017-06-14T11:17:31.326Z,39.20
2017-06-14T11:19:59.393Z,39.70
2017-06-14T11:22:27.473Z,39.70
2017-06-14T11:24:55.575Z,39.70
2017-06-14T11:27:23.647Z,40.30
2017-06-14T11:29:52.490Z,40.00
2017-06-14T11:32:20.563Z,40.00
2017-06-14T11:34:48.632Z,39.80
2017-06-14T11:37:16.702Z,39.50
2017-06-14T11:39:44.776Z,39.70
2017-06-14T11:42:12.843Z,40.10
2017-06-14T11:44:40.915Z,40.00
2017-06-14T11:47:08.991Z,40.20
2017-06-14T11:49:37.060Z,39.80
2017-06-14T11:52:08.044Z,40.00
2017-06-14T11:54:36.122Z,39.60
2017-06-14T11:57:04.188Z,39.90
2017-06-14T11:59:32.260Z,39.50
2017-06-14T12:02:00.348Z,39.40
2017-06-14T12:04:29.191Z,39.00
2017-06-14T12:06:57.267Z,38.90
2017-06-14T12:09:25.342Z,39.80
2017-06-14T12:11:53.411Z,39.90
2017-06-14T12:14:21.496Z,40.10
2017-06-14T12:16:49.568Z,40.00
2017-06-14T12:19:17.643Z,39.80
2017-06-14T12:21:45.714Z,39.80
2017-06-14T12:24:13.791Z,39.50
2017-06-14T12:26:41.871Z,39.70
2017-06-14T12:29:09.942Z,39.90
2017-06-14T12:31:38.020Z,39.60
2017-06-14T12:34:06.567Z,39.90
2017-06-14T12:36:34.636Z,40.00
2017-06-14T12:39:02.711Z,39.50
2017-06-14T12:41:30.787Z,39.50
2017-06-14T12:43:58.871Z,40.00
2017-06-14T12:46:26.928Z,40.00
2017-06-14T12:48:54.998Z,39.10
2017-06-14T12:51:23.072Z,39.70
2017-06-14T12:53:51.172Z,39.80
2017-06-14T12:56:19.235Z,40.10
2017-06-14T12:58:48.110Z,39.90
2017-06-14T13:01:16.180Z,39.80
2017-06-14T13:03:44.250Z,39.70
2017-06-14T13:06:12.327Z,39.70
2017-06-14T13:08:40.395Z,39.60
2017-06-14T13:11:08.471Z,39.80
2017-06-14T13:13:36.539Z,39.20
2017-06-14T13:16:04.611Z,39.30
2017-06-14T13:18:32.683Z,39.10
2017-06-14T13:21:00.764Z,38.90
2017-06-14T13:23:28.830Z,39.10
2017-06-14T13:25:56.908Z,39.10
2017-06-14T13:28:24.991Z,38.80
2017-06-14T13:30:53.062Z,39.50
2017-06-14T13:33:21.187Z,39.50
2017-06-14T13:35:50.023Z,39.10
2017-06-14T13:38:18.104Z,39.10
2017-06-14T13:40:46.176Z,38.80
2017-06-14T13:43:14.251Z,39.60
2017-06-14T13:45:42.327Z,39.10
2017-06-14T13:48:10.398Z,39.50
2017-06-14T13:50:38.468Z,39.20
2017-06-14T13:53:06.539Z,38.90
2017-06-14T13:55:34.619Z,39.50
2017-06-14T13:58:02.682Z,38.40
2017-06-14T14:00:30.771Z,38.20
2017-06-14T14:02:58.855Z,38.40
2017-06-14T14:05:26.928Z,38.30
2017-06-14T14:07:54.992Z,38.70
2017-06-14T14:10:23.072Z,38.90
2017-06-14T14:12:51.146Z,38.30
2017-06-14T14:15:19.230Z,38.40
2017-06-14T14:17:48.079Z,39.10
2017-06-14T14:20:16.155Z,39.10
2017-06-14T14:22:44.227Z,38.60
2017-06-14T14:25:12.294Z,38.50
2017-06-14T14:27:40.375Z,38.80
2017-06-14T14:30:08.443Z,39.10
2017-06-14T14:32:36.530Z,38.60
2017-06-14T14:35:04.619Z,38.50
2017-06-14T14:37:33.459Z,38.50
2017-06-14T14:40:01.547Z,38.40
2017-06-14T14:42:29.615Z,38.60
2017-06-14T14:44:57.694Z,38.40
2017-06-14T14:47:25.767Z,38.80
2017-06-14T14:49:53.839Z,38.70
2017-06-14T14:52:21.915Z,38.00
2017-06-14T14:54:50.006Z,37.70
2017-06-14T14:57:18.075Z,38.40
2017-06-14T14:59:46.147Z,37.90
2017-06-14T15:02:14.224Z,37.90
2017-06-14T15:04:42.308Z,37.90
2017-06-14T15:07:10.409Z,37.80
2017-06-14T15:09:38.467Z,37.80
2017-06-14T15:12:06.539Z,37.40
2017-06-14T15:14:34.613Z,37.10
2017-06-14T15:17:02.683Z,37.60
2017-06-14T15:19:30.755Z,37.50
2017-06-14T15:21:58.831Z,37.70
2017-06-14T15:24:26.903Z,37.60
2017-06-14T15:26:54.975Z,37.90
2017-06-14T15:29:23.052Z,37.60
2017-06-14T15:31:51.120Z,37.40
2017-06-14T15:34:19.959Z,37.20
2017-06-14T15:36:48.034Z,37.90
2017-06-14T15:39:16.111Z,37.20
2017-06-14T15:41:44.175Z,37.00
2017-06-14T15:44:12.263Z,37.10
2017-06-14T15:46:40.334Z,36.90
2017-06-14T15:49:08.398Z,37.20
2017-06-14T15:51:36.476Z,36.70
2017-06-14T15:54:05.151Z,36.90
2017-06-14T15:56:33.251Z,36.80
2017-06-14T15:59:01.317Z,36.70
2017-06-14T16:01:29.407Z,37.50
2017-06-14T16:03:57.479Z,37.20
2017-06-14T16:06:26.319Z,37.30
2017-06-14T16:08:54.386Z,37.20
2017-06-14T16:11:22.455Z,37.50
2017-06-14T16:13:50.532Z,37.30
2017-06-14T16:16:18.606Z,37.70
2017-06-14T16:18:46.683Z,37.80
2017-06-14T16:21:14.764Z,38.40
2017-06-14T16:23:42.874Z,37.50
2017-06-14T16:26:11.712Z,37.40
2017-06-14T16:28:39.791Z,37.40
2017-06-14T16:31:07.870Z,37.00
2017-06-14T16:33:35.939Z,37.10
2017-06-14T16:36:04.031Z,36.80
2017-06-14T16:38:32.110Z,36.90
2017-06-14T16:41:00.194Z,37.00
2017-06-14T16:43:28.250Z,36.80
2017-06-14T16:45:56.343Z,37.00
2017-06-14T16:48:24.410Z,37.00
2017-06-14T16:50:52.478Z,36.90
2017-06-14T16:53:20.557Z,36.60
2017-06-14T16:55:48.638Z,36.30
2017-06-14T16:58:17.482Z,36.60
2017-06-14T17:00:45.555Z,36.60
2017-06-14T17:03:13.639Z,36.80
2017-06-14T17:05:41.711Z,36.80
2017-06-14T17:08:09.782Z,36.80
2017-06-14T17:10:37.855Z,37.10
2017-06-14T17:13:05.947Z,37.00
2017-06-14T17:15:34.016Z,36.50
2017-06-14T17:18:02.087Z,36.50
2017-06-14T17:20:30.171Z,36.80
2017-06-14T17:22:58.243Z,36.70
2017-06-14T17:25:26.314Z,37.10
2017-06-14T17:27:54.375Z,37.30
2017-06-14T17:30:22.451Z,37.40
2017-06-14T17:32:50.519Z,36.90
2017-06-14T17:35:18.609Z,36.60
2017-06-14T17:37:46.684Z,36.80
2017-06-14T17:40:14.753Z,37.20
2017-06-14T17:42:42.831Z,37.00
2017-06-14T17:45:10.894Z,37.00
2017-06-14T17:47:38.967Z,36.80
2017-06-14T17:50:07.031Z,37.00
2017-06-14T17:52:35.111Z,37.20
2017-06-14T17:55:03.177Z,37.30
2017-06-14T17:57:31.281Z,37.30
2017-06-14T17:59:59.343Z,37.30
2017-06-14T18:02:28.183Z,37.20
2017-06-14T18:04:56.263Z,37.10
2017-06-14T18:07:24.377Z,37.30
2017-06-14T18:09:52.455Z,37.50
2017-06-14T18:12:21.283Z,37.70
2017-06-14T18:14:49.363Z,37.70
2017-06-14T18:17:17.434Z,37.40
2017-06-14T18:19:45.515Z,37.60
2017-06-14T18:22:13.586Z,37.60
2017-06-14T18:24:41.650Z,37.60
2017-06-14T18:27:09.735Z,37.70
2017-06-14T18:29:37.807Z,37.90
2017-06-14T18:32:05.883Z,37.80
2017-06-14T18:34:33.954Z,37.90
2017-06-14T18:37:02.043Z,37.90
2017-06-14T18:39:30.115Z,37.50
2017-06-14T18:41:58.203Z,38.70
2017-06-14T18:44:27.055Z,37.50
2017-06-14T18:46:55.128Z,37.50
2017-06-14T18:49:23.207Z,37.80
2017-06-14T18:51:51.279Z,37.70
2017-06-14T18:54:19.352Z,37.90
2017-06-14T18:56:47.419Z,38.70
2017-06-14T18:59:15.498Z,38.50
2017-06-14T19:01:43.567Z,38.80
2017-06-14T19:04:11.663Z,39.00
2017-06-14T19:06:39.742Z,39.30
2017-06-14T19:09:07.887Z,38.90
2017-06-14T19:11:37.185Z,39.30
2017-06-14T19:14:05.250Z,39.20
2017-06-14T19:16:33.330Z,39.20
2017-06-14T19:19:01.406Z,39.20
2017-06-14T19:21:29.478Z,39.20
2017-06-14T19:24:14.252Z,39.10
2017-06-14T19:26:47.918Z,39.40
2017-06-14T19:29:15.991Z,39.60
2017-06-14T19:31:44.088Z,39.40
2017-06-14T19:34:12.377Z,39.10
2017-06-14T19:36:45.990Z,39.10
2017-06-14T19:39:14.054Z,39.60
2017-06-14T19:41:42.130Z,39.70
2017-06-14T19:44:10.211Z,39.90
2017-06-14T19:46:38.298Z,39.90
2017-06-14T19:49:07.150Z,40.10
2017-06-14T19:51:35.224Z,40.00
2017-06-14T19:54:03.314Z,40.00
2017-06-14T19:56:31.394Z,40.10
2017-06-14T19:58:59.460Z,40.10
2017-06-14T20:01:27.539Z,40.60
2017-06-14T20:03:55.610Z,40.70
2017-06-14T20:06:23.695Z,41.80
2017-06-14T20:08:52.535Z,43.30
2017-06-14T20:11:20.622Z,43.30
2017-06-14T20:13:48.693Z,43.30
2017-06-14T20:16:16.843Z,42.70
2017-06-14T20:18:44.926Z,43.20
2017-06-14T20:21:13.007Z,43.30
2017-06-14T20:23:41.087Z,43.20
2017-06-14T20:26:09.155Z,43.30
2017-06-14T20:28:37.233Z,43.40
2017-06-14T20:31:05.302Z,44.40
2017-06-14T20:33:33.377Z,44.50
2017-06-14T20:36:01.447Z,45.30
2017-06-14T20:38:29.519Z,45.60
2017-06-14T20:40:57.586Z,46.00
2017-06-14T20:43:25.661Z,46.40
2017-06-14T20:45:53.743Z,46.80
2017-06-14T20:48:21.804Z,46.50
2017-06-14T20:50:49.883Z,46.70
2017-06-14T20:53:17.953Z,46.90
2017-06-14T20:55:46.052Z,47.20
2017-06-14T20:58:14.154Z,47.50
2017-06-14T21:00:42.203Z,47.50
2017-06-14T21:03:11.039Z,47.70
2017-06-14T21:05:39.115Z,47.60
2017-06-14T21:08:07.219Z,47.50
2017-06-14T21:10:35.281Z,47.50
2017-06-14T21:13:03.352Z,47.70
2017-06-14T21:15:31.440Z,47.70
2017-06-14T21:17:59.510Z,47.90
2017-06-14T21:20:27.579Z,47.80
2017-06-14T21:22:55.651Z,48.00
2017-06-14T21:25:23.739Z,48.20
2017-06-14T21:27:51.799Z,48.20
2017-06-14T21:30:19.871Z,48.10
2017-06-14T21:32:47.943Z,48.60
2017-06-14T21:35:16.027Z,48.80
2017-06-14T21:37:44.104Z,49.00
2017-06-14T21:40:12.172Z,47.80
2017-06-14T21:42:40.243Z,47.70
2017-06-14T21:45:08.315Z,48.10
2017-06-14T21:47:36.404Z,47.80
2017-06-14T21:50:05.235Z,47.70
2017-06-14T21:52:33.311Z,47.60
2017-06-14T21:55:01.400Z,47.80
2017-06-14T21:57:29.467Z,48.80
2017-06-14T21:59:57.548Z,48.90
2017-06-14T22:02:25.611Z,49.30
2017-06-14T22:04:53.687Z,50.40
2017-06-14T22:07:21.759Z,50.00
2017-06-14T22:09:49.830Z,50.60
2017-06-14T22:12:17.907Z,50.30
2017-06-14T22:14:45.979Z,50.30
2017-06-14T22:17:14.051Z,50.00
2017-06-14T22:19:42.128Z,51.00
2017-06-14T22:22:10.218Z,51.20
2017-06-14T22:24:38.285Z,51.50
2017-06-14T22:27:06.359Z,51.80
2017-06-14T22:29:34.428Z,52.30
2017-06-14T22:32:02.511Z,52.50
2017-06-14T22:34:30.661Z,52.60
2017-06-14T22:36:58.731Z,52.90
2017-06-14T22:39:26.811Z,52.50
2017-06-14T22:41:54.887Z,52.40
2017-06-14T22:44:22.962Z,52.70
2017-06-14T22:46:51.040Z,52.80
2017-06-14T22:49:19.440Z,52.80
2017-06-14T22:51:48.278Z,52.80
2017-06-14T22:54:16.350Z,52.80
2017-06-14T22:56:44.434Z,52.80
2017-06-14T22:59:12.509Z,52.70
2017-06-14T23:01:40.580Z,52.60
2017-06-14T23:04:08.651Z,52.40
2017-06-14T23:06:36.743Z,53.40
2017-06-14T23:09:04.811Z,53.10
2017-06-14T23:11:32.889Z,53.30
2017-06-14T23:14:00.966Z,53.30
2017-06-14T23:16:29.038Z,53.30
2017-06-14T23:18:57.115Z,53.20
2017-06-14T23:21:25.175Z,53.30
2017-06-14T23:23:53.260Z,53.10
2017-06-14T23:26:21.319Z,53.10
2017-06-14T23:28:49.405Z,53.30
2017-06-14T23:31:17.463Z,53.30
2017-06-14T23:33:45.591Z,53.00
2017-06-14T23:36:13.670Z,53.00
2017-06-14T23:38:41.743Z,53.00
2017-06-14T23:41:09.819Z,53.00
2017-06-14T23:43:37.892Z,53.00
2017-06-14T23:46:05.971Z,53.10
2017-06-14T23:48:34.043Z,53.20
2017-06-14T23:51:02.127Z,53.10
2017-06-14T23:53:30.202Z,52.90
2017-06-14T23:55:58.262Z,52.80
2017-06-14T23:58:26.342Z,52.80
